Armstrong, Alabama
Current Conditions -  °F | °C
As of 4:35 PM on Monday 26 Jan 2015 (Local Time) from KAUO Reporting Station
Clear Clear  
Wind Chill:   Ceiling: Unl
Heat Index:   Visibility: 10mi
Dew Point: -3°   Wind: 14mph
Humidity: 57%   Direction: 320°NW
Pressure: 29.98"   Gusts: 18mph
Location:  32.2227°N, 85.6394°W
Report Text: KAUO 262235Z AUTO 32012G16KT 10SM CLR 05/M03 A2998 RMK AO1
Loading
Personal Weather Stations






























Interactive Weather Map New forecast layout! Learn more

10-Day Weather Forecast

Advertisements
Track Severe Weather on mobile